sensor_id;sensor_type;location;lat;lon;timestamp;P1;durP1;ratioP1;P2;durP2;ratioP2
54460;SDS011;69977;49.414;11.010;2023-10-31T00:00:44;4.70;;;4.20;;
54460;SDS011;69977;49.414;11.010;2023-10-31T00:03:10;4.33;;;4.03;;
54460;SDS011;69977;49.414;11.010;2023-10-31T00:05:36;5.53;;;4.53;;
54460;SDS011;69977;49.414;11.010;2023-10-31T00:08:02;4.70;;;4.30;;
54460;SDS011;69977;49.414;11.010;2023-10-31T00:10:28;4.60;;;4.20;;
54460;SDS011;69977;49.414;11.010;2023-10-31T00:12:54;3.77;;;3.47;;
54460;SDS011;69977;49.414;11.010;2023-10-31T00:15:20;4.83;;;4.33;;
54460;SDS011;69977;49.414;11.010;2023-10-31T00:17:46;4.30;;;3.93;;
54460;SDS011;69977;49.414;11.010;2023-10-31T00:20:12;4.20;;;3.80;;
54460;SDS011;69977;49.414;11.010;2023-10-31T00:22:37;3.67;;;3.37;;
54460;SDS011;69977;49.414;11.010;2023-10-31T00:25:03;2.97;;;2.77;;
54460;SDS011;69977;49.414;11.010;2023-10-31T00:27:29;3.37;;;2.93;;
54460;SDS011;69977;49.414;11.010;2023-10-31T00:29:55;4.10;;;2.90;;
54460;SDS011;69977;49.414;11.010;2023-10-31T00:32:21;2.67;;;2.47;;
54460;SDS011;69977;49.414;11.010;2023-10-31T00:34:47;2.80;;;2.53;;
54460;SDS011;69977;49.414;11.010;2023-10-31T00:37:13;2.53;;;2.33;;
54460;SDS011;69977;49.414;11.010;2023-10-31T00:39:39;2.90;;;2.70;;
54460;SDS011;69977;49.414;11.010;2023-10-31T00:42:05;2.93;;;2.50;;
54460;SDS011;69977;49.414;11.010;2023-10-31T00:44:31;2.27;;;2.10;;
54460;SDS011;69977;49.414;11.010;2023-10-31T00:46:56;2.50;;;2.20;;
54460;SDS011;69977;49.414;11.010;2023-10-31T00:49:22;2.60;;;2.50;;
54460;SDS011;69977;49.414;11.010;2023-10-31T00:51:48;2.00;;;1.90;;
54460;SDS011;69977;49.414;11.010;2023-10-31T00:54:14;2.00;;;1.90;;
54460;SDS011;69977;49.414;11.010;2023-10-31T00:56:40;2.10;;;2.00;;
54460;SDS011;69977;49.414;11.010;2023-10-31T00:59:06;2.30;;;2.00;;
54460;SDS011;69977;49.414;11.010;2023-10-31T01:01:32;2.43;;;2.20;;
54460;SDS011;69977;49.414;11.010;2023-10-31T01:03:58;2.03;;;1.93;;
54460;SDS011;69977;49.414;11.010;2023-10-31T01:06:24;1.97;;;1.87;;
54460;SDS011;69977;49.414;11.010;2023-10-31T01:08:50;2.10;;;2.00;;
54460;SDS011;69977;49.414;11.010;2023-10-31T01:11:16;2.07;;;1.97;;
54460;SDS011;69977;49.414;11.010;2023-10-31T01:13:41;2.17;;;1.97;;
54460;SDS011;69977;49.414;11.010;2023-10-31T01:16:07;3.50;;;1.90;;
54460;SDS011;69977;49.414;11.010;2023-10-31T01:18:33;2.60;;;2.20;;
54460;SDS011;69977;49.414;11.010;2023-10-31T01:20:59;1.73;;;1.63;;
54460;SDS011;69977;49.414;11.010;2023-10-31T01:23:25;1.10;;;1.10;;
54460;SDS011;69977;49.414;11.010;2023-10-31T01:25:51;1.67;;;1.17;;
54460;SDS011;69977;49.414;11.010;2023-10-31T01:28:16;1.53;;;1.20;;
54460;SDS011;69977;49.414;11.010;2023-10-31T01:30:44;1.93;;;1.00;;
54460;SDS011;69977;49.414;11.010;2023-10-31T01:33:09;0.70;;;0.70;;
54460;SDS011;69977;49.414;11.010;2023-10-31T01:35:35;0.90;;;0.83;;
54460;SDS011;69977;49.414;11.010;2023-10-31T01:38:01;0.60;;;0.60;;
54460;SDS011;69977;49.414;11.010;2023-10-31T01:40:27;0.40;;;0.40;;
54460;SDS011;69977;49.414;11.010;2023-10-31T01:42:54;0.40;;;0.40;;
54460;SDS011;69977;49.414;11.010;2023-10-31T01:45:21;0.67;;;0.50;;
54460;SDS011;69977;49.414;11.010;2023-10-31T01:47:47;0.60;;;0.60;;
54460;SDS011;69977;49.414;11.010;2023-10-31T01:50:14;0.97;;;0.50;;
54460;SDS011;69977;49.414;11.010;2023-10-31T01:52:41;0.60;;;0.60;;
54460;SDS011;69977;49.414;11.010;2023-10-31T01:55:07;0.70;;;0.63;;
54460;SDS011;69977;49.414;11.010;2023-10-31T01:57:35;0.40;;;0.40;;
54460;SDS011;69977;49.414;11.010;2023-10-31T02:00:01;0.30;;;0.30;;
54460;SDS011;69977;49.414;11.010;2023-10-31T02:02:37;1.13;;;0.50;;
54460;SDS011;69977;49.414;11.010;2023-10-31T02:05:05;0.40;;;0.40;;
54460;SDS011;69977;49.414;11.010;2023-10-31T02:07:31;0.47;;;0.47;;
54460;SDS011;69977;49.414;11.010;2023-10-31T02:09:57;0.30;;;0.30;;
54460;SDS011;69977;49.414;11.010;2023-10-31T02:12:35;0.40;;;0.37;;
54460;SDS011;69977;49.414;11.010;2023-10-31T02:15:03;0.57;;;0.30;;
54460;SDS011;69977;49.414;11.010;2023-10-31T02:17:29;0.40;;;0.40;;
54460;SDS011;69977;49.414;11.010;2023-10-31T02:19:55;2.77;;;0.60;;
54460;SDS011;69977;49.414;11.010;2023-10-31T02:22:22;0.40;;;0.40;;
54460;SDS011;69977;49.414;11.010;2023-10-31T02:24:48;0.50;;;0.50;;
54460;SDS011;69977;49.414;11.010;2023-10-31T02:27:14;1.23;;;0.40;;
54460;SDS011;69977;49.414;11.010;2023-10-31T02:29:40;0.87;;;0.40;;
54460;SDS011;69977;49.414;11.010;2023-10-31T02:32:05;0.37;;;0.37;;
54460;SDS011;69977;49.414;11.010;2023-10-31T02:34:31;0.37;;;0.37;;
54460;SDS011;69977;49.414;11.010;2023-10-31T02:36:57;0.50;;;0.50;;
54460;SDS011;69977;49.414;11.010;2023-10-31T02:39:23;0.60;;;0.60;;
54460;SDS011;69977;49.414;11.010;2023-10-31T02:41:49;0.60;;;0.60;;
54460;SDS011;69977;49.414;11.010;2023-10-31T02:44:15;0.53;;;0.53;;
54460;SDS011;69977;49.414;11.010;2023-10-31T02:46:41;0.73;;;0.60;;
54460;SDS011;69977;49.414;11.010;2023-10-31T02:49:06;0.67;;;0.67;;
54460;SDS011;69977;49.414;11.010;2023-10-31T02:51:35;1.10;;;0.50;;
54460;SDS011;69977;49.414;11.010;2023-10-31T02:54:01;0.63;;;0.50;;
54460;SDS011;69977;49.414;11.010;2023-10-31T02:56:26;0.50;;;0.50;;
54460;SDS011;69977;49.414;11.010;2023-10-31T02:58:52;0.60;;;0.60;;
54460;SDS011;69977;49.414;11.010;2023-10-31T03:01:18;0.60;;;0.50;;
54460;SDS011;69977;49.414;11.010;2023-10-31T03:03:45;2.50;;;0.80;;
54460;SDS011;69977;49.414;11.010;2023-10-31T03:06:11;1.57;;;0.70;;
54460;SDS011;69977;49.414;11.010;2023-10-31T03:08:37;0.67;;;0.43;;
54460;SDS011;69977;49.414;11.010;2023-10-31T03:11:02;0.87;;;0.80;;
54460;SDS011;69977;49.414;11.010;2023-10-31T03:13:28;0.40;;;0.40;;
54460;SDS011;69977;49.414;11.010;2023-10-31T03:15:54;0.50;;;0.50;;
54460;SDS011;69977;49.414;11.010;2023-10-31T03:18:20;0.20;;;0.20;;
54460;SDS011;69977;49.414;11.010;2023-10-31T03:20:46;1.20;;;0.70;;
54460;SDS011;69977;49.414;11.010;2023-10-31T03:23:12;2.20;;;0.30;;
54460;SDS011;69977;49.414;11.010;2023-10-31T03:25:38;1.17;;;0.53;;
54460;SDS011;69977;49.414;11.010;2023-10-31T03:28:07;0.53;;;0.53;;
54460;SDS011;69977;49.414;11.010;2023-10-31T03:30:45;0.97;;;0.50;;
54460;SDS011;69977;49.414;11.010;2023-10-31T03:33:14;0.30;;;0.30;;
54460;SDS011;69977;49.414;11.010;2023-10-31T03:35:41;0.90;;;0.50;;
54460;SDS011;69977;49.414;11.010;2023-10-31T03:38:08;0.77;;;0.60;;
54460;SDS011;69977;49.414;11.010;2023-10-31T03:40:34;0.80;;;0.50;;
54460;SDS011;69977;49.414;11.010;2023-10-31T03:42:59;0.40;;;0.40;;
54460;SDS011;69977;49.414;11.010;2023-10-31T03:45:25;1.60;;;0.40;;
54460;SDS011;69977;49.414;11.010;2023-10-31T03:47:51;1.27;;;0.57;;
54460;SDS011;69977;49.414;11.010;2023-10-31T03:50:17;0.63;;;0.40;;
54460;SDS011;69977;49.414;11.010;2023-10-31T03:52:43;0.67;;;0.67;;
54460;SDS011;69977;49.414;11.010;2023-10-31T03:55:09;0.50;;;0.50;;
54460;SDS011;69977;49.414;11.010;2023-10-31T03:57:34;0.40;;;0.40;;
54460;SDS011;69977;49.414;11.010;2023-10-31T04:00:01;0.50;;;0.50;;
54460;SDS011;69977;49.414;11.010;2023-10-31T04:02:39;2.83;;;0.83;;
54460;SDS011;69977;49.414;11.010;2023-10-31T04:05:07;0.73;;;0.53;;
54460;SDS011;69977;49.414;11.010;2023-10-31T04:07:33;1.97;;;0.53;;
54460;SDS011;69977;49.414;11.010;2023-10-31T04:10:00;0.80;;;0.80;;
54460;SDS011;69977;49.414;11.010;2023-10-31T04:12:26;0.57;;;0.57;;
54460;SDS011;69977;49.414;11.010;2023-10-31T04:14:52;0.93;;;0.90;;
54460;SDS011;69977;49.414;11.010;2023-10-31T04:17:17;1.90;;;0.80;;
54460;SDS011;69977;49.414;11.010;2023-10-31T04:19:43;1.67;;;0.80;;
54460;SDS011;69977;49.414;11.010;2023-10-31T04:22:09;1.83;;;0.80;;
54460;SDS011;69977;49.414;11.010;2023-10-31T04:24:35;3.20;;;0.70;;
54460;SDS011;69977;49.414;11.010;2023-10-31T04:27:00;0.70;;;0.70;;
54460;SDS011;69977;49.414;11.010;2023-10-31T04:29:26;2.30;;;0.70;;
54460;SDS011;69977;49.414;11.010;2023-10-31T04:31:52;1.07;;;0.93;;
54460;SDS011;69977;49.414;11.010;2023-10-31T04:34:18;1.30;;;0.90;;
54460;SDS011;69977;49.414;11.010;2023-10-31T04:36:44;1.23;;;0.50;;
54460;SDS011;69977;49.414;11.010;2023-10-31T04:39:10;1.23;;;0.50;;
54460;SDS011;69977;49.414;11.010;2023-10-31T04:41:35;1.90;;;0.87;;
54460;SDS011;69977;49.414;11.010;2023-10-31T04:44:01;0.93;;;0.67;;
54460;SDS011;69977;49.414;11.010;2023-10-31T04:46:28;0.47;;;0.47;;
54460;SDS011;69977;49.414;11.010;2023-10-31T04:48:53;0.50;;;0.50;;
54460;SDS011;69977;49.414;11.010;2023-10-31T04:51:23;0.63;;;0.53;;
54460;SDS011;69977;49.414;11.010;2023-10-31T04:53:48;2.17;;;0.50;;
54460;SDS011;69977;49.414;11.010;2023-10-31T04:56:15;0.50;;;0.50;;
54460;SDS011;69977;49.414;11.010;2023-10-31T04:58:41;1.17;;;0.70;;
54460;SDS011;69977;49.414;11.010;2023-10-31T05:01:09;0.50;;;0.47;;
54460;SDS011;69977;49.414;11.010;2023-10-31T05:03:35;0.60;;;0.60;;
54460;SDS011;69977;49.414;11.010;2023-10-31T05:06:00;0.77;;;0.50;;
54460;SDS011;69977;49.414;11.010;2023-10-31T05:08:26;0.53;;;0.53;;
54460;SDS011;69977;49.414;11.010;2023-10-31T05:10:52;0.70;;;0.70;;
54460;SDS011;69977;49.414;11.010;2023-10-31T05:13:18;1.33;;;0.63;;
54460;SDS011;69977;49.414;11.010;2023-10-31T05:15:44;1.57;;;0.60;;
54460;SDS011;69977;49.414;11.010;2023-10-31T05:18:10;0.43;;;0.43;;
54460;SDS011;69977;49.414;11.010;2023-10-31T05:20:36;0.50;;;0.50;;
54460;SDS011;69977;49.414;11.010;2023-10-31T05:23:02;1.20;;;0.73;;
54460;SDS011;69977;49.414;11.010;2023-10-31T05:25:28;0.60;;;0.60;;
54460;SDS011;69977;49.414;11.010;2023-10-31T05:27:54;0.60;;;0.50;;
54460;SDS011;69977;49.414;11.010;2023-10-31T05:30:19;5.20;;;0.70;;
54460;SDS011;69977;49.414;11.010;2023-10-31T05:32:46;0.73;;;0.40;;
54460;SDS011;69977;49.414;11.010;2023-10-31T05:35:12;0.53;;;0.40;;
54460;SDS011;69977;49.414;11.010;2023-10-31T05:37:38;2.20;;;0.33;;
54460;SDS011;69977;49.414;11.010;2023-10-31T05:40:04;0.60;;;0.60;;
54460;SDS011;69977;49.414;11.010;2023-10-31T05:42:30;1.07;;;0.60;;
54460;SDS011;69977;49.414;11.010;2023-10-31T05:44:56;0.13;;;0.13;;
54460;SDS011;69977;49.414;11.010;2023-10-31T05:47:22;0.20;;;0.20;;
54460;SDS011;69977;49.414;11.010;2023-10-31T05:49:48;1.17;;;0.40;;
54460;SDS011;69977;49.414;11.010;2023-10-31T05:52:14;2.47;;;0.40;;
54460;SDS011;69977;49.414;11.010;2023-10-31T05:54:40;0.37;;;0.33;;
54460;SDS011;69977;49.414;11.010;2023-10-31T05:57:06;1.33;;;0.40;;
54460;SDS011;69977;49.414;11.010;2023-10-31T05:59:31;0.60;;;0.60;;
54460;SDS011;69977;49.414;11.010;2023-10-31T06:01:58;0.63;;;0.40;;
54460;SDS011;69977;49.414;11.010;2023-10-31T06:04:24;0.40;;;0.40;;
54460;SDS011;69977;49.414;11.010;2023-10-31T06:06:52;0.50;;;0.50;;
54460;SDS011;69977;49.414;11.010;2023-10-31T06:09:18;0.60;;;0.40;;
54460;SDS011;69977;49.414;11.010;2023-10-31T06:11:44;0.40;;;0.40;;
54460;SDS011;69977;49.414;11.010;2023-10-31T06:14:10;1.50;;;0.60;;
54460;SDS011;69977;49.414;11.010;2023-10-31T06:16:43;0.47;;;0.47;;
54460;SDS011;69977;49.414;11.010;2023-10-31T06:19:09;0.40;;;0.40;;
54460;SDS011;69977;49.414;11.010;2023-10-31T06:21:35;0.60;;;0.60;;
54460;SDS011;69977;49.414;11.010;2023-10-31T06:24:04;1.70;;;0.37;;
54460;SDS011;69977;49.414;11.010;2023-10-31T06:26:30;1.00;;;0.50;;
54460;SDS011;69977;49.414;11.010;2023-10-31T06:28:56;0.50;;;0.50;;
54460;SDS011;69977;49.414;11.010;2023-10-31T06:31:22;0.33;;;0.33;;
54460;SDS011;69977;49.414;11.010;2023-10-31T06:33:48;0.83;;;0.33;;
54460;SDS011;69977;49.414;11.010;2023-10-31T06:36:13;1.00;;;0.33;;
54460;SDS011;69977;49.414;11.010;2023-10-31T06:38:40;2.07;;;0.43;;
54460;SDS011;69977;49.414;11.010;2023-10-31T06:41:06;1.70;;;0.40;;
54460;SDS011;69977;49.414;11.010;2023-10-31T06:43:32;0.30;;;0.30;;
54460;SDS011;69977;49.414;11.010;2023-10-31T06:45:58;0.73;;;0.40;;
54460;SDS011;69977;49.414;11.010;2023-10-31T06:48:25;1.17;;;0.30;;
54460;SDS011;69977;49.414;11.010;2023-10-31T06:50:51;0.73;;;0.40;;
54460;SDS011;69977;49.414;11.010;2023-10-31T06:53:17;0.30;;;0.30;;
54460;SDS011;69977;49.414;11.010;2023-10-31T06:55:43;0.40;;;0.40;;
54460;SDS011;69977;49.414;11.010;2023-10-31T06:58:09;0.40;;;0.40;;
54460;SDS011;69977;49.414;11.010;2023-10-31T07:00:34;2.37;;;0.40;;
54460;SDS011;69977;49.414;11.010;2023-10-31T07:03:00;0.27;;;0.23;;
54460;SDS011;69977;49.414;11.010;2023-10-31T07:05:37;1.37;;;0.50;;
54460;SDS011;69977;49.414;11.010;2023-10-31T07:08:03;0.57;;;0.30;;
54460;SDS011;69977;49.414;11.010;2023-10-31T07:10:30;1.77;;;0.30;;
54460;SDS011;69977;49.414;11.010;2023-10-31T07:12:56;0.83;;;0.50;;
54460;SDS011;69977;49.414;11.010;2023-10-31T07:15:24;1.40;;;0.43;;
54460;SDS011;69977;49.414;11.010;2023-10-31T07:17:50;0.30;;;0.30;;
54460;SDS011;69977;49.414;11.010;2023-10-31T07:20:16;0.40;;;0.40;;
54460;SDS011;69977;49.414;11.010;2023-10-31T07:22:42;0.50;;;0.43;;
54460;SDS011;69977;49.414;11.010;2023-10-31T07:25:08;0.93;;;0.53;;
54460;SDS011;69977;49.414;11.010;2023-10-31T07:27:34;0.73;;;0.40;;
54460;SDS011;69977;49.414;11.010;2023-10-31T07:30:02;0.60;;;0.30;;
54460;SDS011;69977;49.414;11.010;2023-10-31T07:32:29;1.03;;;0.40;;
54460;SDS011;69977;49.414;11.010;2023-10-31T07:34:55;0.57;;;0.40;;
54460;SDS011;69977;49.414;11.010;2023-10-31T07:37:20;2.10;;;0.47;;
54460;SDS011;69977;49.414;11.010;2023-10-31T07:39:46;1.33;;;0.63;;
54460;SDS011;69977;49.414;11.010;2023-10-31T07:42:13;1.70;;;0.50;;
54460;SDS011;69977;49.414;11.010;2023-10-31T07:44:39;0.50;;;0.40;;
54460;SDS011;69977;49.414;11.010;2023-10-31T07:47:05;0.73;;;0.30;;
54460;SDS011;69977;49.414;11.010;2023-10-31T07:49:31;0.40;;;0.40;;
54460;SDS011;69977;49.414;11.010;2023-10-31T07:51:57;1.63;;;0.60;;
54460;SDS011;69977;49.414;11.010;2023-10-31T07:54:23;1.57;;;0.40;;
54460;SDS011;69977;49.414;11.010;2023-10-31T07:56:48;0.57;;;0.40;;
54460;SDS011;69977;49.414;11.010;2023-10-31T07:59:14;0.63;;;0.30;;
54460;SDS011;69977;49.414;11.010;2023-10-31T08:01:40;0.30;;;0.20;;
54460;SDS011;69977;49.414;11.010;2023-10-31T08:04:06;1.17;;;0.63;;
54460;SDS011;69977;49.414;11.010;2023-10-31T08:06:32;2.23;;;0.30;;
54460;SDS011;69977;49.414;11.010;2023-10-31T08:08:57;0.83;;;0.53;;
54460;SDS011;69977;49.414;11.010;2023-10-31T08:11:24;0.83;;;0.60;;
54460;SDS011;69977;49.414;11.010;2023-10-31T08:13:50;1.17;;;0.60;;
54460;SDS011;69977;49.414;11.010;2023-10-31T08:16:19;1.77;;;0.40;;
54460;SDS011;69977;49.414;11.010;2023-10-31T08:18:45;2.30;;;0.30;;
54460;SDS011;69977;49.414;11.010;2023-10-31T08:21:12;0.43;;;0.40;;
54460;SDS011;69977;49.414;11.010;2023-10-31T08:23:38;1.53;;;0.50;;
54460;SDS011;69977;49.414;11.010;2023-10-31T08:26:04;0.50;;;0.50;;
54460;SDS011;69977;49.414;11.010;2023-10-31T08:28:30;2.23;;;0.50;;
54460;SDS011;69977;49.414;11.010;2023-10-31T08:30:56;1.17;;;0.40;;
54460;SDS011;69977;49.414;11.010;2023-10-31T08:33:22;2.37;;;0.57;;
54460;SDS011;69977;49.414;11.010;2023-10-31T08:35:48;0.73;;;0.50;;
54460;SDS011;69977;49.414;11.010;2023-10-31T08:38:15;0.23;;;0.23;;
54460;SDS011;69977;49.414;11.010;2023-10-31T08:40:42;1.60;;;0.40;;
54460;SDS011;69977;49.414;11.010;2023-10-31T08:43:07;0.70;;;0.40;;
54460;SDS011;69977;49.414;11.010;2023-10-31T08:45:33;0.30;;;0.30;;
54460;SDS011;69977;49.414;11.010;2023-10-31T08:47:59;3.13;;;0.70;;
54460;SDS011;69977;49.414;11.010;2023-10-31T08:50:26;0.83;;;0.43;;
54460;SDS011;69977;49.414;11.010;2023-10-31T08:52:52;0.50;;;0.50;;
54460;SDS011;69977;49.414;11.010;2023-10-31T08:55:18;1.97;;;0.70;;
54460;SDS011;69977;49.414;11.010;2023-10-31T08:57:44;0.70;;;0.40;;
54460;SDS011;69977;49.414;11.010;2023-10-31T09:00:10;2.10;;;0.50;;
54460;SDS011;69977;49.414;11.010;2023-10-31T09:02:36;0.63;;;0.47;;
54460;SDS011;69977;49.414;11.010;2023-10-31T09:05:02;0.37;;;0.37;;
54460;SDS011;69977;49.414;11.010;2023-10-31T09:07:28;0.43;;;0.33;;
54460;SDS011;69977;49.414;11.010;2023-10-31T09:09:53;1.23;;;0.53;;
54460;SDS011;69977;49.414;11.010;2023-10-31T09:12:19;0.50;;;0.50;;
54460;SDS011;69977;49.414;11.010;2023-10-31T09:14:45;2.17;;;0.53;;
54460;SDS011;69977;49.414;11.010;2023-10-31T09:17:11;1.70;;;0.83;;
54460;SDS011;69977;49.414;11.010;2023-10-31T09:19:37;0.60;;;0.60;;
54460;SDS011;69977;49.414;11.010;2023-10-31T09:22:03;1.17;;;0.30;;
54460;SDS011;69977;49.414;11.010;2023-10-31T09:24:29;0.50;;;0.50;;
54460;SDS011;69977;49.414;11.010;2023-10-31T09:26:55;0.70;;;0.50;;
54460;SDS011;69977;49.414;11.010;2023-10-31T09:29:21;3.50;;;0.70;;
54460;SDS011;69977;49.414;11.010;2023-10-31T09:31:46;0.90;;;0.53;;
54460;SDS011;69977;49.414;11.010;2023-10-31T09:34:13;0.43;;;0.43;;
54460;SDS011;69977;49.414;11.010;2023-10-31T09:36:39;0.40;;;0.40;;
54460;SDS011;69977;49.414;11.010;2023-10-31T09:39:05;1.23;;;0.40;;
54460;SDS011;69977;49.414;11.010;2023-10-31T09:41:31;0.63;;;0.30;;
54460;SDS011;69977;49.414;11.010;2023-10-31T09:44:00;1.03;;;0.50;;
54460;SDS011;69977;49.414;11.010;2023-10-31T09:46:27;0.50;;;0.20;;
54460;SDS011;69977;49.414;11.010;2023-10-31T09:48:54;0.93;;;0.33;;
54460;SDS011;69977;49.414;11.010;2023-10-31T09:51:21;0.30;;;0.30;;
54460;SDS011;69977;49.414;11.010;2023-10-31T09:53:47;0.50;;;0.50;;
54460;SDS011;69977;49.414;11.010;2023-10-31T09:56:15;0.50;;;0.30;;
54460;SDS011;69977;49.414;11.010;2023-10-31T09:58:42;1.23;;;0.50;;
54460;SDS011;69977;49.414;11.010;2023-10-31T10:01:08;4.00;;;0.60;;
54460;SDS011;69977;49.414;11.010;2023-10-31T10:03:34;0.50;;;0.50;;
54460;SDS011;69977;49.414;11.010;2023-10-31T10:06:02;1.03;;;0.47;;
54460;SDS011;69977;49.414;11.010;2023-10-31T10:08:28;0.83;;;0.40;;
54460;SDS011;69977;49.414;11.010;2023-10-31T10:10:54;0.50;;;0.50;;
54460;SDS011;69977;49.414;11.010;2023-10-31T10:13:21;0.40;;;0.40;;
54460;SDS011;69977;49.414;11.010;2023-10-31T10:15:47;4.83;;;0.77;;
54460;SDS011;69977;49.414;11.010;2023-10-31T10:18:24;0.30;;;0.30;;
54460;SDS011;69977;49.414;11.010;2023-10-31T10:20:58;0.60;;;0.60;;
54460;SDS011;69977;49.414;11.010;2023-10-31T10:23:25;1.00;;;0.40;;
54460;SDS011;69977;49.414;11.010;2023-10-31T10:25:52;0.63;;;0.63;;
54460;SDS011;69977;49.414;11.010;2023-10-31T10:28:19;0.53;;;0.40;;
54460;SDS011;69977;49.414;11.010;2023-10-31T10:30:46;1.60;;;0.53;;
54460;SDS011;69977;49.414;11.010;2023-10-31T10:33:13;0.63;;;0.63;;
54460;SDS011;69977;49.414;11.010;2023-10-31T10:35:40;0.90;;;0.50;;
54460;SDS011;69977;49.414;11.010;2023-10-31T10:38:15;0.90;;;0.50;;
54460;SDS011;69977;49.414;11.010;2023-10-31T10:40:46;0.40;;;0.40;;
54460;SDS011;69977;49.414;11.010;2023-10-31T10:43:23;1.30;;;0.50;;
54460;SDS011;69977;49.414;11.010;2023-10-31T10:45:55;0.40;;;0.40;;
54460;SDS011;69977;49.414;11.010;2023-10-31T10:48:23;0.50;;;0.50;;
54460;SDS011;69977;49.414;11.010;2023-10-31T10:50:57;1.10;;;1.00;;
54460;SDS011;69977;49.414;11.010;2023-10-31T10:53:29;0.97;;;0.60;;
54460;SDS011;69977;49.414;11.010;2023-10-31T10:56:03;7.47;;;0.70;;
54460;SDS011;69977;49.414;11.010;2023-10-31T10:58:36;1.87;;;0.77;;
54460;SDS011;69977;49.414;11.010;2023-10-31T11:01:17;1.40;;;0.40;;
54460;SDS011;69977;49.414;11.010;2023-10-31T11:03:44;0.70;;;0.47;;
54460;SDS011;69977;49.414;11.010;2023-10-31T11:06:11;0.73;;;0.40;;
54460;SDS011;69977;49.414;11.010;2023-10-31T11:08:38;1.50;;;0.80;;
54460;SDS011;69977;49.414;11.010;2023-10-31T11:11:05;1.63;;;0.80;;
54460;SDS011;69977;49.414;11.010;2023-10-31T11:13:31;1.13;;;0.63;;
54460;SDS011;69977;49.414;11.010;2023-10-31T11:15:59;1.17;;;0.77;;
54460;SDS011;69977;49.414;11.010;2023-10-31T11:18:31;0.93;;;0.67;;
54460;SDS011;69977;49.414;11.010;2023-10-31T11:20:58;1.67;;;0.90;;
54460;SDS011;69977;49.414;11.010;2023-10-31T11:23:24;0.57;;;0.57;;
54460;SDS011;69977;49.414;11.010;2023-10-31T11:25:49;4.10;;;0.80;;
54460;SDS011;69977;49.414;11.010;2023-10-31T11:28:18;0.73;;;0.60;;
54460;SDS011;69977;49.414;11.010;2023-10-31T11:30:48;1.47;;;0.60;;
54460;SDS011;69977;49.414;11.010;2023-10-31T11:33:15;1.70;;;0.73;;
54460;SDS011;69977;49.414;11.010;2023-10-31T11:35:49;1.77;;;0.90;;
54460;SDS011;69977;49.414;11.010;2023-10-31T11:38:15;2.57;;;0.67;;
54460;SDS011;69977;49.414;11.010;2023-10-31T11:43:24;0.83;;;0.83;;
54460;SDS011;69977;49.414;11.010;2023-10-31T11:45:50;1.33;;;0.73;;
54460;SDS011;69977;49.414;11.010;2023-10-31T11:48:17;0.67;;;0.60;;
54460;SDS011;69977;49.414;11.010;2023-10-31T11:51:13;2.17;;;0.63;;
54460;SDS011;69977;49.414;11.010;2023-10-31T11:53:39;0.77;;;0.67;;
54460;SDS011;69977;49.414;11.010;2023-10-31T11:56:05;2.10;;;0.53;;
54460;SDS011;69977;49.414;11.010;2023-10-31T11:58:34;1.87;;;0.57;;
54460;SDS011;69977;49.414;11.010;2023-10-31T12:01:01;3.80;;;0.80;;
54460;SDS011;69977;49.414;11.010;2023-10-31T12:03:35;1.17;;;0.90;;
54460;SDS011;69977;49.414;11.010;2023-10-31T12:06:07;1.87;;;0.70;;
54460;SDS011;69977;49.414;11.010;2023-10-31T12:08:38;1.90;;;0.67;;
54460;SDS011;69977;49.414;11.010;2023-10-31T12:13:34;0.57;;;0.50;;
54460;SDS011;69977;49.414;11.010;2023-10-31T12:16:01;1.57;;;1.03;;
54460;SDS011;69977;49.414;11.010;2023-10-31T12:18:28;2.30;;;1.13;;
54460;SDS011;69977;49.414;11.010;2023-10-31T12:20:54;1.77;;;0.83;;
54460;SDS011;69977;49.414;11.010;2023-10-31T12:23:20;2.93;;;1.33;;
54460;SDS011;69977;49.414;11.010;2023-10-31T12:25:49;1.53;;;0.70;;
54460;SDS011;69977;49.414;11.010;2023-10-31T12:28:25;1.73;;;1.20;;
54460;SDS011;69977;49.414;11.010;2023-10-31T12:30:53;1.90;;;0.87;;
54460;SDS011;69977;49.414;11.010;2023-10-31T12:33:21;1.07;;;0.80;;
54460;SDS011;69977;49.414;11.010;2023-10-31T12:35:52;3.73;;;1.03;;
54460;SDS011;69977;49.414;11.010;2023-10-31T12:38:21;2.63;;;0.90;;
54460;SDS011;69977;49.414;11.010;2023-10-31T12:40:47;2.10;;;0.97;;
54460;SDS011;69977;49.414;11.010;2023-10-31T12:43:14;2.33;;;0.83;;
54460;SDS011;69977;49.414;11.010;2023-10-31T12:45:42;2.00;;;0.90;;
54460;SDS011;69977;49.414;11.010;2023-10-31T12:48:09;3.10;;;1.17;;
54460;SDS011;69977;49.414;11.010;2023-10-31T12:50:36;2.57;;;0.70;;
54460;SDS011;69977;49.414;11.010;2023-10-31T12:53:04;4.03;;;1.43;;
54460;SDS011;69977;49.414;11.010;2023-10-31T12:55:31;3.60;;;1.27;;
54460;SDS011;69977;49.414;11.010;2023-10-31T12:58:06;1.33;;;1.03;;
54460;SDS011;69977;49.414;11.010;2023-10-31T13:00:33;2.23;;;1.10;;
54460;SDS011;69977;49.414;11.010;2023-10-31T13:03:00;0.83;;;0.80;;
54460;SDS011;69977;49.414;11.010;2023-10-31T13:05:28;2.17;;;0.97;;
54460;SDS011;69977;49.414;11.010;2023-10-31T13:07:55;4.77;;;0.97;;
54460;SDS011;69977;49.414;11.010;2023-10-31T13:10:26;4.57;;;0.90;;
54460;SDS011;69977;49.414;11.010;2023-10-31T13:12:57;2.93;;;1.13;;
54460;SDS011;69977;49.414;11.010;2023-10-31T13:15:23;1.03;;;0.93;;
54460;SDS011;69977;49.414;11.010;2023-10-31T13:17:50;5.23;;;0.80;;
54460;SDS011;69977;49.414;11.010;2023-10-31T13:20:20;0.70;;;0.60;;
54460;SDS011;69977;49.414;11.010;2023-10-31T13:22:46;6.67;;;1.23;;
54460;SDS011;69977;49.414;11.010;2023-10-31T13:25:13;4.77;;;0.90;;
54460;SDS011;69977;49.414;11.010;2023-10-31T13:27:41;1.07;;;0.40;;
54460;SDS011;69977;49.414;11.010;2023-10-31T13:30:09;4.60;;;0.90;;
54460;SDS011;69977;49.414;11.010;2023-10-31T13:32:36;0.80;;;0.43;;
54460;SDS011;69977;49.414;11.010;2023-10-31T13:35:03;2.77;;;0.50;;
54460;SDS011;69977;49.414;11.010;2023-10-31T13:37:34;1.90;;;0.70;;
54460;SDS011;69977;49.414;11.010;2023-10-31T13:40:01;3.07;;;0.73;;
54460;SDS011;69977;49.414;11.010;2023-10-31T13:42:27;1.20;;;0.70;;
54460;SDS011;69977;49.414;11.010;2023-10-31T13:44:53;1.73;;;0.90;;
54460;SDS011;69977;49.414;11.010;2023-10-31T13:47:19;3.13;;;0.70;;
54460;SDS011;69977;49.414;11.010;2023-10-31T13:49:45;3.17;;;0.73;;
54460;SDS011;69977;49.414;11.010;2023-10-31T13:52:11;2.77;;;1.00;;
54460;SDS011;69977;49.414;11.010;2023-10-31T13:54:37;1.23;;;0.77;;
54460;SDS011;69977;49.414;11.010;2023-10-31T13:57:03;3.67;;;1.47;;
54460;SDS011;69977;49.414;11.010;2023-10-31T13:59:29;2.73;;;0.90;;
54460;SDS011;69977;49.414;11.010;2023-10-31T14:01:54;1.50;;;0.90;;
54460;SDS011;69977;49.414;11.010;2023-10-31T14:04:20;4.07;;;1.20;;
54460;SDS011;69977;49.414;11.010;2023-10-31T14:06:46;1.57;;;1.30;;
54460;SDS011;69977;49.414;11.010;2023-10-31T14:09:13;2.80;;;1.23;;
54460;SDS011;69977;49.414;11.010;2023-10-31T14:11:40;2.23;;;0.90;;
54460;SDS011;69977;49.414;11.010;2023-10-31T14:14:06;2.73;;;0.90;;
54460;SDS011;69977;49.414;11.010;2023-10-31T14:16:34;1.80;;;0.43;;
54460;SDS011;69977;49.414;11.010;2023-10-31T14:19:01;4.10;;;1.13;;
54460;SDS011;69977;49.414;11.010;2023-10-31T14:21:27;2.93;;;0.87;;
54460;SDS011;69977;49.414;11.010;2023-10-31T14:23:54;1.47;;;0.90;;
54460;SDS011;69977;49.414;11.010;2023-10-31T14:26:20;4.17;;;1.30;;
54460;SDS011;69977;49.414;11.010;2023-10-31T14:28:46;1.43;;;0.87;;
54460;SDS011;69977;49.414;11.010;2023-10-31T14:31:13;2.87;;;0.90;;
54460;SDS011;69977;49.414;11.010;2023-10-31T14:33:42;2.33;;;1.00;;
54460;SDS011;69977;49.414;11.010;2023-10-31T14:36:08;3.40;;;0.80;;